createdAt,value
2019-04-26T00:01:55.769Z,18.20
2019-04-26T00:04:24.310Z,18.20
2019-04-26T00:06:52.640Z,18.10
2019-04-26T00:09:25.736Z,17.90
2019-04-26T00:11:58.350Z,17.90
2019-04-26T00:14:44.631Z,17.80
2019-04-26T00:17:15.446Z,17.80
2019-04-26T00:19:44.268Z,17.70
2019-04-26T00:22:12.977Z,17.60
2019-04-26T00:24:41.962Z,17.60
2019-04-26T00:27:11.254Z,17.50
2019-04-26T00:29:39.657Z,17.50
2019-04-26T00:32:07.895Z,17.40
2019-04-26T00:34:36.158Z,17.20
2019-04-26T00:37:04.428Z,17.20
2019-04-26T00:39:32.780Z,17.20
2019-04-26T00:42:01.048Z,17.20
2019-04-26T00:44:29.458Z,17.10
2019-04-26T00:46:57.968Z,17.10
2019-04-26T00:49:26.234Z,17.10
2019-04-26T00:51:54.504Z,17.10
2019-04-26T00:54:22.754Z,17.10
2019-04-26T00:56:51.090Z,17.20
2019-04-26T00:59:20.439Z,17.20
2019-04-26T01:01:50.725Z,17.20
2019-04-26T01:04:18.964Z,17.30
2019-04-26T01:06:48.864Z,17.20
2019-04-26T01:09:17.437Z,17.20
2019-04-26T01:11:45.749Z,17.10
2019-04-26T01:14:14.001Z,17.00
2019-04-26T01:16:44.984Z,16.90
2019-04-26T01:19:13.210Z,16.90
2019-04-26T01:21:44.756Z,16.80
2019-04-26T01:24:13.007Z,16.80
2019-04-26T01:26:41.289Z,16.80
2019-04-26T01:29:14.138Z,16.70
2019-04-26T01:31:51.406Z,16.60
2019-04-26T01:34:21.997Z,16.60
2019-04-26T01:36:49.730Z,16.60
2019-04-26T01:39:20.650Z,16.60
2019-04-26T01:41:50.170Z,16.60
2019-04-26T01:44:22.921Z,16.70
2019-04-26T01:46:52.032Z,16.60
2019-04-26T01:49:22.282Z,16.60
2019-04-26T01:51:56.346Z,16.60
2019-04-26T01:54:27.783Z,16.60
2019-04-26T01:56:59.397Z,16.60
2019-04-26T01:59:27.718Z,16.60
2019-04-26T02:01:57.640Z,16.60
2019-04-26T02:04:27.820Z,16.70
2019-04-26T02:06:56.224Z,16.60
2019-04-26T02:09:24.450Z,16.60
2019-04-26T02:11:52.696Z,16.60
2019-04-26T02:14:20.964Z,16.70
2019-04-26T02:16:49.203Z,16.70
2019-04-26T02:19:17.429Z,16.70
2019-04-26T02:21:52.940Z,16.70
2019-04-26T02:24:24.799Z,16.70
2019-04-26T02:26:52.812Z,16.70
2019-04-26T02:29:26.808Z,16.70
2019-04-26T02:31:57.616Z,16.70
2019-04-26T02:34:27.845Z,16.70
2019-04-26T02:36:59.014Z,16.70
2019-04-26T02:39:39.583Z,16.60
2019-04-26T02:42:30.950Z,16.60
2019-04-26T02:45:21.758Z,16.60
2019-04-26T02:47:55.348Z,16.50
2019-04-26T02:50:25.248Z,16.50
2019-04-26T02:52:56.844Z,16.50
2019-04-26T02:55:42.298Z,16.50
2019-04-26T02:58:07.339Z,16.50
2019-04-26T03:00:37.274Z,16.40
2019-04-26T03:03:06.103Z,16.40
2019-04-26T03:05:35.655Z,16.30
2019-04-26T03:08:06.537Z,16.30
2019-04-26T03:10:36.832Z,16.30
2019-04-26T03:13:05.777Z,16.30
2019-04-26T03:15:38.970Z,16.20
2019-04-26T03:18:26.171Z,16.20
2019-04-26T03:21:00.762Z,16.20
2019-04-26T03:23:59.561Z,16.20
2019-04-26T03:26:37.511Z,16.20
2019-04-26T03:29:12.748Z,16.10
2019-04-26T03:31:54.399Z,16.10
2019-04-26T03:34:39.304Z,16.10
2019-04-26T03:37:28.038Z,16.00
2019-04-26T03:40:16.091Z,16.00
2019-04-26T03:42:59.194Z,16.00
2019-04-26T03:45:45.909Z,16.00
2019-04-26T03:48:35.917Z,15.90
2019-04-26T03:51:13.313Z,15.90
2019-04-26T03:53:47.817Z,15.90
2019-04-26T03:56:26.718Z,15.80
2019-04-26T03:59:09.038Z,15.80
2019-04-26T04:01:47.908Z,15.80
2019-04-26T04:04:37.234Z,15.80
2019-04-26T04:07:07.536Z,15.70
2019-04-26T04:09:35.895Z,15.60
2019-04-26T04:12:25.429Z,15.60
2019-04-26T04:15:15.330Z,15.50
2019-04-26T04:17:56.179Z,15.50
2019-04-26T04:20:48.184Z,15.40
2019-04-26T04:23:28.691Z,15.30
2019-04-26T04:25:56.942Z,15.30
2019-04-26T04:28:42.061Z,15.20
2019-04-26T04:31:25.500Z,15.10
2019-04-26T04:33:59.580Z,15.10
2019-04-26T04:36:31.052Z,15.00
2019-04-26T04:39:16.635Z,15.00
2019-04-26T04:42:32.220Z,14.90
2019-04-26T04:45:26.571Z,14.70
2019-04-26T04:48:15.984Z,14.70
2019-04-26T04:51:02.719Z,14.70
2019-04-26T04:53:51.727Z,14.50
2019-04-26T04:56:41.627Z,14.40
2019-04-26T04:59:28.039Z,14.30
2019-04-26T05:02:18.910Z,14.20
2019-04-26T05:05:06.358Z,14.30
2019-04-26T05:08:05.370Z,14.30
2019-04-26T05:10:37.574Z,14.20
2019-04-26T05:13:09.072Z,14.20
2019-04-26T05:16:02.572Z,14.20
2019-04-26T05:31:48.633Z,13.90
2019-04-26T05:34:47.490Z,13.50
2019-04-26T05:40:00.471Z,13.20
2019-04-26T05:42:45.629Z,13.10
2019-04-26T05:58:51.746Z,12.80
2019-04-26T06:01:53.232Z,13.10
2019-04-26T06:04:29.363Z,13.10
2019-04-26T06:07:11.166Z,13.10
2019-04-26T06:10:00.835Z,13.10
2019-04-26T06:12:59.020Z,13.20
2019-04-26T06:15:38.127Z,13.20
2019-04-26T06:18:39.669Z,13.20
2019-04-26T06:21:14.278Z,13.10
2019-04-26T06:24:01.999Z,13.10
2019-04-26T06:27:12.108Z,13.10
2019-04-26T06:29:38.472Z,13.10
2019-04-26T06:32:12.977Z,13.20
2019-04-26T06:34:47.142Z,13.20
2019-04-26T06:37:20.291Z,13.20
2019-04-26T06:39:56.012Z,13.30
2019-04-26T06:42:44.520Z,13.30
2019-04-26T06:45:36.288Z,13.40
2019-04-26T06:48:29.401Z,13.40
2019-04-26T06:51:00.915Z,13.40
2019-04-26T06:53:32.427Z,13.50
2019-04-26T06:56:08.054Z,13.50
2019-04-26T06:58:57.957Z,13.50
2019-04-26T07:01:41.503Z,13.60
2019-04-26T07:04:17.050Z,13.60
2019-04-26T07:06:54.622Z,13.70
2019-04-26T07:09:28.686Z,13.80
2019-04-26T07:12:11.666Z,13.90
2019-04-26T07:14:46.157Z,13.90
2019-04-26T07:17:38.660Z,14.00
2019-04-26T07:20:18.575Z,14.00
2019-04-26T07:23:01.768Z,14.10
2019-04-26T07:26:01.699Z,14.30
2019-04-26T07:28:46.579Z,14.40
2019-04-26T07:31:30.181Z,14.60
2019-04-26T07:34:02.379Z,14.50
2019-04-26T07:36:53.097Z,14.60
2019-04-26T07:39:50.282Z,14.60
2019-04-26T07:42:55.443Z,14.50
2019-04-26T07:45:58.744Z,14.50
2019-04-26T07:48:36.235Z,14.50
2019-04-26T07:51:11.603Z,14.60
2019-04-26T07:53:46.034Z,14.70
2019-04-26T07:56:26.646Z,14.80
2019-04-26T07:59:21.753Z,14.90
2019-04-26T08:02:02.629Z,14.90
2019-04-26T08:04:34.315Z,15.00
2019-04-26T08:07:06.340Z,15.00
2019-04-26T08:09:34.766Z,15.30
2019-04-26T08:12:06.089Z,15.30
2019-04-26T08:14:51.110Z,15.40
2019-04-26T08:17:40.671Z,15.40
2019-04-26T08:20:16.523Z,15.00
2019-04-26T08:22:48.347Z,15.10
2019-04-26T08:25:17.664Z,15.20
2019-04-26T08:27:46.063Z,15.10
2019-04-26T08:30:18.637Z,15.10
2019-04-26T08:32:51.493Z,15.20
2019-04-26T08:35:24.358Z,15.20
2019-04-26T08:37:54.959Z,15.20
2019-04-26T08:40:30.741Z,15.40
2019-04-26T08:43:01.386Z,15.40
2019-04-26T08:46:01.954Z,15.50
2019-04-26T08:48:32.103Z,15.50
2019-04-26T08:51:02.118Z,15.50
2019-04-26T08:53:30.356Z,15.50
2019-04-26T08:55:58.629Z,15.50
2019-04-26T08:58:26.962Z,15.50
2019-04-26T09:00:57.455Z,15.50
2019-04-26T09:03:42.680Z,15.60
2019-04-26T09:06:24.804Z,15.70
2019-04-26T09:08:53.211Z,15.70
2019-04-26T09:11:25.905Z,15.60
2019-04-26T09:13:51.407Z,15.60
2019-04-26T09:16:20.486Z,15.60
2019-04-26T09:18:54.371Z,15.70
2019-04-26T09:21:20.488Z,15.60
2019-04-26T09:23:59.102Z,15.50
2019-04-26T09:26:32.090Z,15.50
2019-04-26T09:29:02.011Z,15.50
2019-04-26T09:31:43.972Z,15.50
2019-04-26T09:34:14.308Z,15.20
2019-04-26T09:36:42.552Z,15.30
2019-04-26T09:39:12.311Z,15.20
2019-04-26T09:41:40.822Z,15.20
2019-04-26T09:44:16.155Z,15.20
2019-04-26T09:46:48.411Z,15.10
2019-04-26T09:49:17.671Z,15.00
2019-04-26T09:51:45.918Z,14.90
2019-04-26T09:54:15.480Z,14.60
2019-04-26T09:56:43.878Z,14.50
2019-04-26T09:59:12.214Z,14.50
2019-04-26T10:01:40.475Z,14.50
2019-04-26T10:04:08.718Z,14.50
2019-04-26T10:06:36.953Z,14.40
2019-04-26T10:09:10.249Z,14.40
2019-04-26T10:11:43.513Z,14.30
2019-04-26T10:14:11.736Z,14.30
2019-04-26T10:16:42.399Z,14.30
2019-04-26T10:19:11.232Z,14.30
2019-04-26T10:21:39.562Z,14.10
2019-04-26T10:24:08.536Z,14.10
2019-04-26T10:26:37.103Z,14.10
2019-04-26T10:29:05.334Z,14.20
2019-04-26T10:31:33.586Z,14.10
2019-04-26T10:34:01.847Z,14.00
2019-04-26T10:36:31.375Z,14.00
2019-04-26T10:38:59.837Z,13.90
2019-04-26T10:41:28.067Z,13.80
2019-04-26T10:43:56.323Z,13.90
2019-04-26T10:46:27.914Z,13.80
2019-04-26T10:48:54.538Z,13.80
2019-04-26T10:51:33.448Z,13.70
2019-04-26T10:54:09.193Z,13.50
2019-04-26T10:56:41.776Z,13.40
2019-04-26T10:59:11.687Z,13.40
2019-04-26T11:01:41.651Z,13.20
2019-04-26T11:04:09.906Z,13.20
2019-04-26T11:06:38.167Z,13.20
2019-04-26T11:09:06.421Z,13.20
2019-04-26T11:11:35.062Z,13.20
2019-04-26T11:14:03.297Z,13.20
2019-04-26T11:16:31.559Z,13.20
2019-04-26T11:19:01.123Z,13.20
2019-04-26T11:21:29.781Z,13.20
2019-04-26T11:23:58.036Z,13.20
2019-04-26T11:26:26.370Z,13.00
2019-04-26T11:28:55.774Z,12.70
2019-04-26T11:31:27.695Z,12.70
2019-04-26T11:34:04.681Z,12.40
2019-04-26T11:36:24.611Z,12.20
2019-04-26T11:38:52.871Z,12.20
2019-04-26T11:41:21.233Z,12.30
2019-04-26T11:43:52.967Z,12.30
2019-04-26T11:46:21.786Z,12.10
2019-04-26T11:48:58.532Z,12.00
2019-04-26T11:51:19.472Z,11.80
2019-04-26T11:53:47.756Z,11.80
2019-04-26T11:56:16.078Z,11.80
2019-04-26T11:58:44.331Z,11.90
2019-04-26T12:01:14.206Z,11.80
2019-04-26T12:03:44.173Z,11.80
2019-04-26T12:06:17.180Z,11.80
2019-04-26T12:08:47.055Z,11.60
2019-04-26T12:11:18.978Z,11.40
2019-04-26T12:13:45.313Z,11.20
2019-04-26T12:16:14.696Z,11.20
2019-04-26T12:18:44.187Z,11.00
2019-04-26T12:21:13.507Z,10.90
2019-04-26T12:23:41.763Z,10.90
2019-04-26T12:26:10.019Z,10.80
2019-04-26T12:28:40.052Z,10.70
2019-04-26T12:31:08.246Z,10.80
2019-04-26T12:33:39.206Z,10.70
2019-04-26T12:36:09.521Z,10.70
2019-04-26T12:38:36.445Z,10.70
2019-04-26T12:41:04.757Z,10.70
2019-04-26T12:43:33.029Z,10.70
2019-04-26T12:46:02.914Z,10.60
2019-04-26T12:48:31.175Z,10.60
2019-04-26T12:50:59.774Z,10.50
2019-04-26T12:53:31.495Z,10.40
2019-04-26T12:55:58.382Z,10.30
2019-04-26T12:58:26.960Z,10.30
2019-04-26T13:00:56.557Z,10.30
2019-04-26T13:03:28.693Z,10.30
2019-04-26T13:05:57.944Z,10.30
2019-04-26T13:08:24.754Z,10.40
2019-04-26T13:11:00.198Z,10.40
2019-04-26T13:13:30.112Z,10.40
2019-04-26T13:16:05.658Z,10.40
2019-04-26T13:18:33.934Z,10.30
2019-04-26T13:21:02.943Z,10.30
2019-04-26T13:23:32.235Z,10.30
2019-04-26T13:26:01.549Z,10.20
2019-04-26T13:28:30.112Z,10.20
2019-04-26T13:30:58.389Z,10.30
2019-04-26T13:33:27.539Z,10.20
2019-04-26T13:36:02.687Z,10.00
2019-04-26T13:38:26.642Z,9.90
2019-04-26T13:40:54.879Z,9.80
2019-04-26T13:43:26.956Z,9.80
2019-04-26T13:46:12.586Z,9.80
2019-04-26T13:48:43.526Z,9.80
2019-04-26T13:51:16.740Z,9.80
2019-04-26T13:53:44.971Z,9.80
2019-04-26T13:56:13.305Z,9.90
2019-04-26T13:58:41.534Z,10.00
2019-04-26T14:01:10.577Z,10.10
2019-04-26T14:03:38.813Z,10.10
2019-04-26T14:06:07.085Z,10.10
2019-04-26T14:08:35.332Z,10.10
2019-04-26T14:11:03.843Z,10.10
2019-04-26T14:13:32.153Z,9.90
2019-04-26T14:16:00.461Z,9.70
2019-04-26T14:18:28.726Z,9.70
2019-04-26T14:20:59.004Z,9.70
2019-04-26T14:23:40.972Z,9.60
2019-04-26T14:26:10.861Z,9.60
2019-04-26T14:28:41.859Z,9.50
2019-04-26T14:31:12.290Z,9.40
2019-04-26T14:33:39.163Z,9.40
2019-04-26T14:36:17.586Z,9.50
2019-04-26T14:38:40.031Z,9.50
2019-04-26T14:41:07.586Z,9.50
2019-04-26T14:43:40.904Z,9.60
2019-04-26T14:46:05.865Z,9.70
2019-04-26T14:48:36.290Z,9.80
2019-04-26T14:51:08.186Z,9.80
2019-04-26T14:53:36.455Z,9.80
2019-04-26T14:56:04.364Z,9.80
2019-04-26T14:58:33.729Z,9.80
2019-04-26T15:01:12.648Z,9.70
2019-04-26T15:03:43.090Z,9.60
2019-04-26T15:06:16.797Z,9.70
2019-04-26T15:08:46.829Z,9.80
2019-04-26T15:11:13.054Z,9.70
2019-04-26T15:13:43.800Z,9.60
2019-04-26T15:16:12.336Z,9.50
2019-04-26T15:18:42.633Z,9.40
2019-04-26T15:21:12.735Z,9.20
2019-04-26T15:23:41.221Z,9.30
2019-04-26T15:26:09.443Z,9.30
2019-04-26T15:28:37.689Z,9.30
2019-04-26T15:31:05.957Z,9.30
2019-04-26T15:33:35.958Z,9.30
2019-04-26T15:36:06.491Z,9.30
2019-04-26T15:38:41.032Z,9.30
2019-04-26T15:41:11.900Z,9.30
2019-04-26T15:43:46.786Z,9.30
2019-04-26T15:46:20.947Z,9.10
2019-04-26T15:48:54.500Z,9.10
2019-04-26T15:51:27.451Z,9.00
2019-04-26T15:53:54.919Z,9.00
2019-04-26T15:56:23.255Z,9.00
2019-04-26T15:58:52.295Z,9.00
2019-04-26T16:01:20.761Z,9.00
2019-04-26T16:03:49.093Z,9.00
2019-04-26T16:06:17.367Z,9.10
2019-04-26T16:08:45.611Z,9.10
2019-04-26T16:11:13.833Z,9.20
2019-04-26T16:13:45.256Z,9.20
2019-04-26T16:16:12.638Z,9.10
2019-04-26T16:18:41.005Z,9.00
2019-04-26T16:21:13.573Z,9.10
2019-04-26T16:23:41.515Z,9.10
2019-04-26T16:26:12.905Z,9.10
2019-04-26T16:28:49.800Z,9.10
2019-04-26T16:31:19.784Z,9.00
2019-04-26T16:33:52.485Z,8.90
2019-04-26T16:36:21.849Z,8.90
2019-04-26T16:38:54.760Z,8.90
2019-04-26T16:41:21.711Z,9.00
2019-04-26T16:43:53.122Z,9.00
2019-04-26T16:46:22.861Z,9.10
2019-04-26T16:48:57.063Z,9.20
2019-04-26T16:51:23.239Z,9.20
2019-04-26T16:54:03.742Z,9.20
2019-04-26T16:56:25.984Z,9.20
2019-04-26T16:58:53.611Z,9.20
2019-04-26T17:01:20.559Z,9.20
2019-04-26T17:03:48.884Z,9.20
2019-04-26T17:06:17.216Z,9.10
2019-04-26T17:08:49.299Z,9.10
2019-04-26T17:11:15.518Z,9.10
2019-04-26T17:13:50.819Z,9.10
2019-04-26T17:16:13.771Z,9.10
2019-04-26T17:18:42.687Z,9.20
2019-04-26T17:21:12.679Z,9.20
2019-04-26T17:24:00.724Z,9.20
2019-04-26T17:26:33.749Z,9.30
2019-04-26T17:29:02.282Z,9.30
2019-04-26T17:31:30.731Z,9.40
2019-04-26T17:33:58.964Z,9.40
2019-04-26T17:36:27.216Z,9.30
2019-04-26T17:38:55.468Z,9.30
2019-04-26T17:41:23.708Z,9.40
2019-04-26T17:44:00.387Z,9.40
2019-04-26T17:46:21.943Z,9.50
2019-04-26T17:48:50.818Z,9.40
2019-04-26T17:51:22.989Z,9.40
2019-04-26T17:53:58.798Z,9.40
2019-04-26T17:56:21.328Z,9.40
2019-04-26T17:58:54.137Z,9.40
2019-04-26T18:01:39.821Z,9.40
2019-04-26T18:03:52.139Z,9.30
2019-04-26T18:06:29.006Z,9.30
2019-04-26T18:08:54.215Z,9.30
2019-04-26T18:11:22.400Z,9.30
2019-04-26T18:13:51.288Z,9.40
2019-04-26T18:16:21.991Z,9.30
2019-04-26T18:18:55.819Z,9.40
2019-04-26T18:21:37.278Z,9.40
2019-04-26T18:24:05.528Z,9.40
2019-04-26T18:26:33.794Z,9.40
2019-04-26T18:29:03.720Z,9.40
2019-04-26T18:31:33.653Z,9.40
2019-04-26T18:34:04.016Z,9.30
2019-04-26T18:36:33.204Z,9.30
2019-04-26T18:39:03.725Z,9.30
2019-04-26T18:41:31.733Z,9.30
2019-04-26T18:44:00.884Z,9.30
2019-04-26T18:46:47.093Z,9.40
2019-04-26T18:49:17.622Z,9.40
2019-04-26T18:51:48.138Z,9.40
2019-04-26T18:54:17.845Z,9.40
2019-04-26T18:56:46.262Z,9.40
2019-04-26T18:59:15.533Z,9.40
2019-04-26T19:01:43.930Z,9.40
2019-04-26T19:04:13.508Z,9.40
2019-04-26T19:06:42.500Z,9.40
2019-04-26T19:09:12.195Z,9.40
2019-04-26T19:11:43.805Z,9.40
2019-04-26T19:14:15.009Z,9.40
2019-04-26T19:16:52.286Z,9.40
2019-04-26T19:19:25.388Z,9.40
2019-04-26T19:22:03.266Z,9.40
2019-04-26T19:24:31.794Z,9.50
2019-04-26T19:27:00.057Z,9.40
2019-04-26T19:29:33.623Z,9.30
2019-04-26T19:32:01.466Z,9.30
2019-04-26T19:34:30.157Z,9.20
2019-04-26T19:36:59.806Z,9.10
2019-04-26T19:39:32.152Z,9.10
2019-04-26T19:41:58.719Z,9.10
2019-04-26T19:44:27.053Z,9.10
2019-04-26T19:47:09.172Z,9.00
2019-04-26T19:49:47.607Z,9.00
2019-04-26T19:52:26.663Z,9.00
2019-04-26T19:54:56.543Z,9.00
2019-04-26T19:57:33.399Z,9.00
2019-04-26T20:00:03.765Z,9.00
2019-04-26T20:02:36.283Z,9.00
2019-04-26T20:05:02.354Z,8.90
2019-04-26T20:07:33.387Z,8.90
2019-04-26T20:10:04.942Z,8.90
2019-04-26T20:12:35.225Z,8.90
2019-04-26T20:15:02.349Z,8.90
2019-04-26T20:17:30.852Z,8.90
2019-04-26T20:19:59.079Z,8.90
2019-04-26T20:22:29.978Z,8.80
2019-04-26T20:24:58.383Z,8.90
2019-04-26T20:27:27.990Z,8.80
2019-04-26T20:29:56.563Z,8.80
2019-04-26T20:32:32.390Z,8.80
2019-04-26T20:35:02.276Z,8.90
2019-04-26T20:37:32.133Z,8.80
2019-04-26T20:40:17.625Z,8.70
2019-04-26T20:42:31.650Z,8.70
2019-04-26T20:45:00.072Z,8.70
2019-04-26T20:47:28.341Z,8.80
2019-04-26T20:50:01.284Z,8.80
2019-04-26T20:52:26.670Z,8.80
2019-04-26T20:54:54.929Z,8.90
2019-04-26T20:57:26.688Z,8.90
2019-04-26T21:00:01.639Z,8.90
2019-04-26T21:02:24.711Z,8.90
2019-04-26T21:04:53.236Z,8.80
2019-04-26T21:07:21.949Z,8.80
2019-04-26T21:09:50.237Z,8.80
2019-04-26T21:12:18.581Z,8.80
2019-04-26T21:14:46.817Z,8.80
2019-04-26T21:17:15.147Z,8.70
2019-04-26T21:19:43.466Z,8.70
2019-04-26T21:22:11.759Z,8.70
2019-04-26T21:24:50.617Z,8.70
2019-04-26T21:27:25.859Z,8.70
2019-04-26T21:30:05.572Z,8.60
2019-04-26T21:32:40.573Z,8.60
2019-04-26T21:35:09.634Z,8.60
2019-04-26T21:37:49.527Z,8.70
2019-04-26T21:40:26.236Z,8.70
2019-04-26T21:42:59.254Z,8.70
2019-04-26T21:45:28.502Z,8.80
2019-04-26T21:47:54.642Z,8.80
2019-04-26T21:50:22.897Z,8.80
2019-04-26T21:52:51.152Z,8.80
2019-04-26T21:55:19.412Z,8.80
2019-04-26T21:57:47.649Z,8.90
2019-04-26T22:00:20.359Z,8.80
2019-04-26T22:02:48.687Z,8.90
2019-04-26T22:05:16.933Z,8.90
2019-04-26T22:07:47.753Z,9.00
2019-04-26T22:10:23.516Z,9.00
2019-04-26T22:12:51.898Z,9.00
2019-04-26T22:15:24.869Z,9.00
2019-04-26T22:17:54.759Z,9.00
2019-04-26T22:20:24.658Z,9.00
2019-04-26T22:22:57.500Z,9.00
2019-04-26T22:25:27.416Z,9.00
2019-04-26T22:28:00.304Z,8.90
2019-04-26T22:30:28.356Z,8.90
2019-04-26T22:32:58.337Z,8.90
2019-04-26T22:35:26.877Z,8.90
2019-04-26T22:37:55.116Z,8.90
2019-04-26T22:40:23.446Z,8.90
2019-04-26T22:42:54.401Z,8.80
2019-04-26T22:45:24.389Z,8.90
2019-04-26T22:47:57.185Z,8.90
2019-04-26T22:50:25.438Z,8.90
2019-04-26T22:52:54.775Z,8.90
2019-04-26T22:55:27.200Z,8.80
2019-04-26T22:57:53.183Z,8.80
2019-04-26T23:00:25.593Z,8.80
2019-04-26T23:02:53.444Z,8.80
2019-04-26T23:05:23.085Z,8.80
2019-04-26T23:07:54.696Z,8.80
2019-04-26T23:10:28.234Z,8.80
2019-04-26T23:12:57.960Z,8.80
2019-04-26T23:15:30.088Z,8.80
2019-04-26T23:18:13.759Z,8.90
2019-04-26T23:20:44.214Z,8.90
2019-04-26T23:23:13.496Z,9.00
2019-04-26T23:25:43.385Z,9.00
2019-04-26T23:28:11.821Z,9.00
2019-04-26T23:30:40.311Z,9.10
2019-04-26T23:33:08.590Z,9.10
2019-04-26T23:35:43.278Z,9.10
2019-04-26T23:38:06.845Z,9.10
2019-04-26T23:40:35.086Z,9.00
2019-04-26T23:43:03.310Z,9.00
2019-04-26T23:45:33.170Z,9.10
2019-04-26T23:48:03.402Z,9.10
2019-04-26T23:50:33.960Z,9.20
2019-04-26T23:53:03.014Z,9.20
2019-04-26T23:55:31.496Z,9.20
2019-04-26T23:57:59.742Z,9.20
